createdAt,value
2018-03-06T09:17:04.650Z,5732
2018-03-06T09:18:06.533Z,5592
2018-03-06T09:19:08.409Z,5872
2018-03-06T09:20:10.279Z,6028
2018-03-06T09:21:12.074Z,6132
2018-03-06T09:22:13.914Z,6120
2018-03-06T09:23:15.788Z,6328
2018-03-06T09:24:17.639Z,6596
2018-03-06T09:25:19.497Z,6668
2018-03-06T09:26:33.619Z,7044
2018-03-06T09:27:35.504Z,7112
2018-03-06T09:28:37.387Z,7036
2018-03-06T09:29:39.249Z,7156
2018-03-06T09:30:41.088Z,7152
2018-03-06T09:31:42.902Z,7036
2018-03-06T09:32:44.784Z,6936
2018-03-06T09:33:46.665Z,6944
2018-03-06T09:34:48.541Z,7080
2018-03-06T09:36:02.671Z,7408
2018-03-06T09:37:04.689Z,7780
2018-03-06T09:38:06.562Z,8016
2018-03-06T09:39:08.447Z,8260
2018-03-06T09:40:10.262Z,8348
2018-03-06T09:41:12.090Z,8400
2018-03-06T09:42:13.978Z,8660
2018-03-06T09:43:15.860Z,8716
2018-03-06T09:44:17.742Z,8816
2018-03-06T09:45:31.899Z,8820
2018-03-06T09:46:33.777Z,8940
2018-03-06T09:47:35.641Z,9208
2018-03-06T09:48:37.501Z,9140
2018-03-06T09:49:39.303Z,9060
2018-03-06T09:50:41.120Z,8684
2018-03-06T09:51:42.985Z,8304
2018-03-06T09:52:44.844Z,7884
2018-03-06T09:53:46.722Z,8088
2018-03-06T09:55:00.923Z,8204
2018-03-06T09:56:02.806Z,8028
2018-03-06T09:57:04.669Z,7976
2018-03-06T09:58:06.553Z,8104
2018-03-06T09:59:08.351Z,7892
2018-03-06T10:00:10.153Z,7968
2018-03-06T10:01:12.013Z,8328
2018-03-06T10:02:13.896Z,8372
2018-03-06T10:03:15.776Z,8864
2018-03-06T10:04:29.908Z,9332
2018-03-06T10:05:31.787Z,9212
2018-03-06T10:06:33.654Z,9204
2018-03-06T10:07:35.534Z,9036
2018-03-06T10:08:37.334Z,9192
2018-03-06T10:09:39.156Z,9720
2018-03-06T10:10:41.040Z,9936
2018-03-06T10:11:42.927Z,9688
2018-03-06T10:12:44.799Z,10244
2018-03-06T10:13:58.942Z,10340
2018-03-06T10:15:00.807Z,10772
2018-03-06T10:16:02.675Z,10572
2018-03-06T10:17:04.560Z,10580
2018-03-06T10:18:06.376Z,10512
2018-03-06T10:19:08.174Z,10616
2018-03-06T10:20:10.039Z,9956
2018-03-06T10:21:11.903Z,9668
2018-03-06T10:22:13.783Z,8960
2018-03-06T10:23:27.914Z,9820
2018-03-06T10:24:29.779Z,9580
2018-03-06T10:25:31.663Z,9396
2018-03-06T10:26:33.523Z,9236
2018-03-06T10:27:35.325Z,8792
2018-03-06T10:28:37.141Z,8484
2018-03-06T10:29:39.008Z,8196
2018-03-06T10:30:40.889Z,9128
2018-03-06T10:31:42.755Z,8916
2018-03-06T10:32:56.888Z,9516
2018-03-06T10:33:58.798Z,9672
2018-03-06T10:35:00.637Z,9556
2018-03-06T10:36:02.522Z,8704
2018-03-06T10:37:04.317Z,8340
2018-03-06T10:38:06.114Z,7880
2018-03-06T10:39:07.980Z,7288
2018-03-06T10:40:09.862Z,7968
2018-03-06T10:41:11.725Z,8004
2018-03-06T10:42:25.879Z,6580
2018-03-06T10:43:27.744Z,7156
2018-03-06T10:44:29.627Z,7768
2018-03-06T10:45:31.513Z,7148
2018-03-06T10:46:33.333Z,7948
2018-03-06T10:47:35.155Z,7996
2018-03-06T10:48:37.038Z,8752
2018-03-06T10:49:38.939Z,7880
2018-03-06T10:50:40.788Z,7472
2018-03-06T10:51:54.921Z,7696
2018-03-06T10:52:56.787Z,7864
2018-03-06T10:53:58.674Z,7308
2018-03-06T10:55:00.554Z,7344
2018-03-06T10:56:02.376Z,7024
2018-03-06T10:57:04.172Z,7556
2018-03-06T10:58:06.057Z,7000
2018-03-06T10:59:07.914Z,6760
2018-03-06T11:00:09.770Z,6128
2018-03-06T11:01:23.901Z,6844
2018-03-06T11:02:25.770Z,6772
2018-03-06T11:03:27.640Z,6040
2018-03-06T11:04:29.538Z,6684
2018-03-06T11:05:31.299Z,7836
2018-03-06T11:06:33.143Z,7320
2018-03-06T11:07:35.002Z,6960
2018-03-06T11:08:36.883Z,7284
2018-03-06T11:09:38.765Z,6744
2018-03-06T11:10:52.930Z,6360
2018-03-06T11:11:54.780Z,7188
2018-03-06T11:12:56.651Z,6876
2018-03-06T11:13:58.532Z,6520
2018-03-06T11:15:00.332Z,7068
2018-03-06T11:16:02.132Z,7692
2018-03-06T11:17:04.016Z,7904
2018-03-06T11:18:05.891Z,7816
2018-03-06T11:19:07.753Z,8552
2018-03-06T11:20:21.933Z,8596
2018-03-06T11:21:23.813Z,8880
2018-03-06T11:22:25.690Z,8640
2018-03-06T11:23:27.609Z,8256
2018-03-06T11:24:29.439Z,8124
2018-03-06T11:25:31.267Z,8056
2018-03-06T11:26:33.135Z,7940
2018-03-06T11:27:35.011Z,7448
2018-03-06T11:28:36.876Z,7368
2018-03-06T11:29:51.033Z,7440
2018-03-06T11:30:52.893Z,7944
2018-03-06T11:31:54.777Z,7552
2018-03-06T11:32:56.646Z,7260
2018-03-06T11:33:58.453Z,7832
2018-03-06T11:35:00.288Z,8424
2018-03-06T11:36:02.164Z,7900
2018-03-06T11:37:04.028Z,8560
2018-03-06T11:38:05.907Z,8592
2018-03-06T11:39:20.043Z,7644
2018-03-06T11:40:21.902Z,8384
2018-03-06T11:41:23.788Z,9220
2018-03-06T11:42:25.655Z,9044
2018-03-06T11:43:27.474Z,10004
2018-03-06T11:44:29.325Z,9756
2018-03-06T11:45:31.200Z,9272
2018-03-06T11:46:33.060Z,9232
2018-03-06T11:47:34.926Z,9684
2018-03-06T11:48:49.072Z,9036
2018-03-06T11:49:50.964Z,10348
2018-03-06T11:50:52.830Z,10500
2018-03-06T11:51:54.698Z,10108
2018-03-06T11:52:56.493Z,10288
2018-03-06T11:53:58.301Z,10900
2018-03-06T11:55:00.190Z,10288
2018-03-06T11:56:02.064Z,9760
2018-03-06T11:57:03.931Z,9844
2018-03-06T11:58:18.052Z,9888
2018-03-06T11:59:19.917Z,10036
2018-03-06T12:00:21.778Z,9820
2018-03-06T12:01:23.643Z,10108
2018-03-06T12:02:25.438Z,10208
2018-03-06T12:03:27.237Z,9508
2018-03-06T12:04:29.099Z,9824
2018-03-06T12:05:30.962Z,10240
2018-03-06T12:06:32.848Z,10380
2018-03-06T12:07:47.089Z,10368
2018-03-06T12:08:48.998Z,9556
2018-03-06T12:09:50.872Z,8956
2018-03-06T12:10:52.746Z,10072
2018-03-06T12:11:54.558Z,10176
2018-03-06T12:12:56.362Z,10232
2018-03-06T12:13:58.247Z,10296
2018-03-06T12:15:00.117Z,10356
2018-03-06T12:16:01.990Z,10356
2018-03-06T12:17:16.126Z,10144
2018-03-06T12:18:18.006Z,9920
2018-03-06T12:19:19.873Z,9320
2018-03-06T12:20:21.762Z,9120
2018-03-06T12:21:23.624Z,9020
2018-03-06T12:22:25.402Z,9288
2018-03-06T12:23:27.285Z,8164
2018-03-06T12:24:29.145Z,8680
2018-03-06T12:25:31.010Z,9056
2018-03-06T12:26:45.141Z,8300
2018-03-06T12:27:47.028Z,7368
2018-03-06T12:28:48.888Z,8092
2018-03-06T12:29:50.755Z,6956
2018-03-06T12:30:52.562Z,7248
2018-03-06T12:31:54.378Z,6572
2018-03-06T12:32:56.232Z,6868
2018-03-06T12:33:58.094Z,6764
2018-03-06T12:34:59.962Z,5736
2018-03-06T12:36:14.113Z,4992
2018-03-06T12:37:15.995Z,5324
2018-03-06T12:38:17.895Z,5500
2018-03-06T12:39:19.793Z,5348
2018-03-06T12:40:21.596Z,4400
2018-03-06T12:41:23.415Z,4872
2018-03-06T12:42:25.277Z,4584
2018-03-06T12:43:27.133Z,4144
2018-03-06T12:44:28.995Z,4052
2018-03-06T12:45:43.125Z,3980
2018-03-06T12:46:44.989Z,4396
2018-03-06T12:47:46.870Z,4408
2018-03-06T12:48:48.729Z,4148
2018-03-06T12:49:50.536Z,4444
2018-03-06T12:50:52.350Z,4980
2018-03-06T12:51:54.211Z,4640
2018-03-06T12:52:56.067Z,4688
2018-03-06T12:53:57.927Z,4620
2018-03-06T12:55:12.058Z,4032
2018-03-06T12:56:13.941Z,4568
2018-03-06T12:57:15.825Z,5724
2018-03-06T12:58:17.714Z,6440
2018-03-06T12:59:19.535Z,6752
2018-03-06T13:00:21.329Z,6504
2018-03-06T13:01:23.193Z,5752
2018-03-06T13:02:25.059Z,4480
2018-03-06T13:03:26.919Z,4664
2018-03-06T13:04:41.067Z,4432
2018-03-06T13:05:42.945Z,3812
2018-03-06T13:06:44.809Z,4300
2018-03-06T13:07:46.675Z,4984
2018-03-06T13:08:48.496Z,4840
2018-03-06T13:09:50.328Z,2928
2018-03-06T13:10:52.184Z,2928
2018-03-06T13:11:54.064Z,3304
2018-03-06T13:12:55.924Z,4556
2018-03-06T13:14:10.079Z,4700
2018-03-06T13:15:11.937Z,4052
2018-03-06T13:16:13.821Z,2868
2018-03-06T13:17:15.703Z,2776
2018-03-06T13:18:17.504Z,3276
2018-03-06T13:19:19.327Z,3720
2018-03-06T13:20:21.205Z,3516
2018-03-06T13:21:23.067Z,2804
2018-03-06T13:22:24.922Z,2388
2018-03-06T13:23:39.101Z,2736
2018-03-06T13:24:40.960Z,2500
2018-03-06T13:25:42.817Z,2452
2018-03-06T13:26:44.681Z,2132
2018-03-06T13:27:46.496Z,2848
2018-03-06T13:28:48.293Z,3612
2018-03-06T13:29:50.160Z,3416
2018-03-06T13:30:52.040Z,2936
2018-03-06T13:31:53.896Z,2612
2018-03-06T13:33:08.026Z,1984
2018-03-06T13:34:09.887Z,2140
2018-03-06T13:35:11.761Z,2084
2018-03-06T13:36:13.624Z,2692
2018-03-06T13:37:15.425Z,2884
2018-03-06T13:38:17.247Z,2948
2018-03-06T13:39:19.108Z,2468
2018-03-06T13:40:20.976Z,2460
2018-03-06T13:41:22.838Z,2596
2018-03-06T13:42:36.965Z,2592
2018-03-06T13:43:38.847Z,2944
2018-03-06T13:44:40.712Z,3012
2018-03-06T13:45:42.597Z,2748
2018-03-06T13:46:44.411Z,2452
2018-03-06T13:47:46.232Z,2184
2018-03-06T13:48:48.107Z,2188
2018-03-06T13:49:49.964Z,2348
2018-03-06T13:50:51.826Z,2436
2018-03-06T13:52:05.956Z,2612
2018-03-06T13:53:07.821Z,2868
2018-03-06T13:54:09.702Z,2668
2018-03-06T13:55:11.566Z,2784
2018-03-06T13:56:13.363Z,2996
2018-03-06T13:57:15.164Z,3124
2018-03-06T13:58:17.024Z,3388
2018-03-06T13:59:18.881Z,3412
2018-03-06T14:00:20.749Z,3504
2018-03-06T14:01:34.871Z,3848
2018-03-06T14:02:36.736Z,3936
2018-03-06T14:03:38.618Z,3952
2018-03-06T14:04:40.504Z,4128
2018-03-06T14:05:42.319Z,4196
2018-03-06T14:06:44.121Z,4072
2018-03-06T14:07:46.005Z,3912
2018-03-06T14:08:47.848Z,3704
2018-03-06T14:09:49.643Z,3540
2018-03-06T14:11:03.786Z,3356
2018-03-06T14:12:05.655Z,3456
2018-03-06T14:13:07.511Z,3580
2018-03-06T14:14:09.375Z,3552
2018-03-06T14:15:11.193Z,3692
2018-03-06T14:16:12.991Z,3620
2018-03-06T14:17:14.873Z,3136
2018-03-06T14:18:16.737Z,2748
2018-03-06T14:19:18.611Z,2760
2018-03-06T14:20:32.739Z,1944
2018-03-06T14:21:34.621Z,1948
2018-03-06T14:22:36.503Z,2228
2018-03-06T14:23:38.365Z,1800
2018-03-06T14:24:40.184Z,1612
2018-03-06T14:25:42.000Z,1812
2018-03-06T14:26:43.856Z,2184
2018-03-06T14:27:45.719Z,2680
2018-03-06T14:28:47.597Z,2732
2018-03-06T14:30:01.723Z,2164
2018-03-06T14:31:03.588Z,2052
2018-03-06T14:32:05.472Z,1652
2018-03-06T14:33:07.349Z,1788
2018-03-06T14:34:09.146Z,1804
2018-03-06T14:35:10.959Z,1308
2018-03-06T14:36:12.825Z,1120
2018-03-06T14:37:14.681Z,1488
2018-03-06T14:38:16.561Z,2156
2018-03-06T14:39:30.686Z,2100
2018-03-06T14:40:32.573Z,1972
2018-03-06T14:41:34.440Z,1984
2018-03-06T14:42:36.301Z,1840
2018-03-06T14:43:38.099Z,1500
2018-03-06T14:44:39.893Z,1416
2018-03-06T14:45:41.777Z,1400
2018-03-06T14:46:43.650Z,1616
2018-03-06T14:47:45.518Z,1780
2018-03-06T14:48:59.640Z,1972
2018-03-06T14:50:01.512Z,1960
2018-03-06T14:51:03.390Z,2192
2018-03-06T14:52:05.258Z,2332
2018-03-06T14:53:07.074Z,2428
2018-03-06T14:54:08.876Z,2460
2018-03-06T14:55:10.763Z,2068
2018-03-06T14:56:12.636Z,1596
2018-03-06T14:57:14.499Z,1348
2018-03-06T14:58:28.640Z,1512
2018-03-06T14:59:30.506Z,1660
2018-03-06T15:00:32.370Z,1684
2018-03-06T15:01:34.276Z,1184
2018-03-06T15:02:36.038Z,1304
2018-03-06T15:03:37.854Z,1392
2018-03-06T15:04:39.646Z,1288
2018-03-06T15:05:41.441Z,1396
2018-03-06T15:06:43.235Z,1236
2018-03-06T15:07:57.416Z,1416
2018-03-06T15:08:59.298Z,1404
2018-03-06T15:10:01.167Z,1288
2018-03-06T15:11:03.048Z,1652
2018-03-06T15:12:04.862Z,1724
2018-03-06T15:13:06.661Z,1596
2018-03-06T15:14:08.542Z,1448
2018-03-06T15:15:10.407Z,1332
2018-03-06T15:16:12.266Z,1396
2018-03-06T15:17:26.391Z,1256
2018-03-06T15:18:28.256Z,1216
2018-03-06T15:19:30.134Z,1148
2018-03-06T15:20:31.993Z,1184
2018-03-06T15:21:33.788Z,1124
2018-03-06T15:22:35.581Z,1156
2018-03-06T15:23:37.445Z,1080
2018-03-06T15:24:39.303Z,968
2018-03-06T15:25:41.162Z,1040
2018-03-06T15:26:55.297Z,1036
2018-03-06T15:27:57.177Z,1092
2018-03-06T15:28:59.061Z,928
2018-03-06T15:30:00.937Z,956
2018-03-06T15:31:02.828Z,984
2018-03-06T15:32:04.669Z,860
2018-03-06T15:33:06.535Z,848
2018-03-06T15:34:08.408Z,908
2018-03-06T15:35:10.288Z,828
2018-03-06T15:36:24.472Z,928
2018-03-06T15:37:26.375Z,992
2018-03-06T15:38:28.253Z,912
2018-03-06T15:39:30.115Z,932
2018-03-06T15:40:31.914Z,948
2018-03-06T15:41:33.729Z,984
2018-03-06T15:42:35.596Z,964
2018-03-06T15:43:37.457Z,932
2018-03-06T15:44:39.340Z,880
2018-03-06T15:45:53.473Z,916
2018-03-06T15:46:55.341Z,956
2018-03-06T15:47:57.220Z,940
2018-03-06T15:48:59.081Z,932
2018-03-06T15:50:00.883Z,836
2018-03-06T15:51:02.692Z,772
2018-03-06T15:52:04.551Z,848
2018-03-06T15:53:06.424Z,872
2018-03-06T15:54:08.268Z,832
2018-03-06T15:55:22.389Z,852
2018-03-06T15:56:24.258Z,800
2018-03-06T15:57:26.140Z,656
2018-03-06T15:58:28.021Z,644
2018-03-06T15:59:29.867Z,684
2018-03-06T16:00:31.664Z,680
2018-03-06T16:01:33.525Z,744
2018-03-06T16:02:35.384Z,724
2018-03-06T16:03:37.239Z,636
2018-03-06T16:04:51.432Z,584
2018-03-06T16:05:53.311Z,588
2018-03-06T16:06:55.228Z,560
2018-03-06T16:07:57.124Z,480
2018-03-06T16:08:58.935Z,508
2018-03-06T16:10:00.730Z,500
2018-03-06T16:11:02.586Z,484
2018-03-06T16:12:04.450Z,428
2018-03-06T16:13:06.304Z,408
2018-03-06T16:14:20.451Z,400
2018-03-06T16:15:22.332Z,356
2018-03-06T16:16:24.196Z,348
2018-03-06T16:17:26.082Z,340
2018-03-06T16:18:27.896Z,344
2018-03-06T16:19:29.707Z,300
2018-03-06T16:20:31.579Z,272
2018-03-06T16:21:33.426Z,280
2018-03-06T16:22:35.280Z,264
2018-03-06T16:23:49.423Z,268
2018-03-06T16:24:51.286Z,268
2018-03-06T16:25:53.147Z,248
2018-03-06T16:26:55.006Z,240
2018-03-06T16:27:56.796Z,232
2018-03-06T16:28:58.592Z,216
2018-03-06T16:30:00.447Z,196
2018-03-06T16:31:02.310Z,172
2018-03-06T16:32:04.193Z,164
2018-03-06T16:33:18.388Z,160
2018-03-06T16:34:20.263Z,160
2018-03-06T16:35:22.145Z,140
2018-03-06T16:36:24.028Z,128
2018-03-06T16:37:25.815Z,116
2018-03-06T16:38:27.604Z,108
2018-03-06T16:39:29.463Z,108
2018-03-06T16:40:31.329Z,104
2018-03-06T16:41:33.197Z,84
2018-03-06T16:42:47.319Z,88
2018-03-06T16:43:49.179Z,72
2018-03-06T16:44:51.057Z,68
2018-03-06T16:45:52.938Z,60
2018-03-06T16:46:54.752Z,48
2018-03-06T16:47:56.566Z,48
2018-03-06T16:48:58.408Z,44
2018-03-06T16:50:00.295Z,44
2018-03-06T16:51:02.153Z,36
2018-03-06T16:52:16.273Z,32
2018-03-06T16:53:18.131Z,28
2018-03-06T16:54:19.999Z,28
2018-03-06T16:55:21.884Z,28
2018-03-06T16:56:23.679Z,20
2018-03-06T16:57:25.476Z,16
2018-03-06T16:58:27.350Z,16
2018-03-06T16:59:29.222Z,16
2018-03-06T17:00:31.074Z,16
2018-03-06T17:01:45.202Z,12
2018-03-06T17:02:47.058Z,12
2018-03-06T17:03:48.915Z,8
2018-03-06T17:04:50.838Z,8
2018-03-06T17:05:52.587Z,4
2018-03-06T17:06:54.397Z,8
2018-03-06T17:07:56.276Z,4
2018-03-06T17:08:58.148Z,4
2018-03-06T17:10:00.019Z,4
2018-03-06T17:11:14.143Z,4
2018-03-06T17:12:16.998Z,4
2018-03-06T17:13:21.886Z,0
2018-03-06T17:14:23.759Z,0
2018-03-06T17:15:25.556Z,0
2018-03-06T17:16:27.368Z,0
2018-03-06T17:17:29.221Z,0
2018-03-06T17:18:31.072Z,0
2018-03-06T17:19:32.928Z,0
2018-03-06T17:20:47.050Z,0
2018-03-06T17:21:48.908Z,0
2018-03-06T17:22:50.768Z,0
2018-03-06T17:23:52.642Z,0
2018-03-06T17:24:54.438Z,0
2018-03-06T17:25:56.249Z,0
2018-03-06T17:26:58.105Z,0
2018-03-06T17:27:59.976Z,0
2018-03-06T17:29:01.827Z,0
2018-03-06T17:30:15.948Z,0
2018-03-06T17:31:17.805Z,0
2018-03-06T17:32:19.663Z,0
2018-03-06T17:33:21.539Z,0
2018-03-06T17:34:23.330Z,0
2018-03-06T17:35:25.160Z,0
2018-03-06T17:36:26.946Z,0
2018-03-06T17:37:28.798Z,0
2018-03-06T17:38:30.692Z,0
2018-03-06T17:39:44.834Z,0
2018-03-06T17:40:46.711Z,0
2018-03-06T17:41:48.590Z,0
2018-03-06T17:42:50.446Z,0
2018-03-06T17:43:52.259Z,0
2018-03-06T17:44:54.046Z,0
2018-03-06T17:45:55.922Z,0
2018-03-06T17:46:57.791Z,0
2018-03-06T17:47:59.650Z,0
2018-03-06T17:49:13.772Z,0
2018-03-06T17:50:15.644Z,0
2018-03-06T17:51:17.502Z,0
2018-03-06T17:52:19.366Z,0
2018-03-06T17:53:21.173Z,0
2018-03-06T17:54:22.981Z,0
2018-03-06T17:55:24.837Z,0
2018-03-06T17:56:26.687Z,0
2018-03-06T17:57:28.545Z,0
2018-03-06T17:58:42.668Z,0
2018-03-06T17:59:44.525Z,0
2018-03-06T18:00:46.380Z,0
2018-03-06T18:01:48.257Z,0
2018-03-06T18:02:50.049Z,0
2018-03-06T18:03:51.871Z,0
2018-03-06T18:04:53.712Z,0
2018-03-06T18:05:55.568Z,0
2018-03-06T18:06:57.444Z,0
2018-03-06T18:08:11.564Z,0
2018-03-06T18:09:13.437Z,0
2018-03-06T18:10:15.319Z,0
2018-03-06T18:11:17.141Z,0
2018-03-06T18:12:18.936Z,0
2018-03-06T18:13:20.751Z,0
2018-03-06T18:14:22.608Z,0
2018-03-06T18:15:24.478Z,0
2018-03-06T18:16:26.331Z,0
2018-03-06T18:17:40.454Z,0
2018-03-06T18:18:42.336Z,0
2018-03-06T18:19:44.189Z,0
2018-03-06T18:20:46.065Z,0
2018-03-06T18:21:47.857Z,0
2018-03-06T18:22:49.653Z,0
2018-03-06T18:23:51.502Z,0
2018-03-06T18:24:53.353Z,0
2018-03-06T18:25:55.209Z,0
2018-03-06T18:27:09.384Z,0
2018-03-06T18:28:11.262Z,0
2018-03-06T18:29:13.123Z,0
2018-03-06T18:30:14.997Z,0
2018-03-06T18:31:16.787Z,0
2018-03-06T18:32:18.580Z,0
2018-03-06T18:33:20.434Z,0
2018-03-06T18:34:22.290Z,0
2018-03-06T18:35:24.151Z,0
2018-03-06T18:36:38.343Z,0
2018-03-06T18:37:40.212Z,0
2018-03-06T18:38:42.069Z,0
2018-03-06T18:39:43.925Z,0
2018-03-06T18:40:45.717Z,0
2018-03-06T18:41:47.506Z,0
2018-03-06T18:42:49.362Z,0
2018-03-06T18:43:51.215Z,0
2018-03-06T18:44:53.072Z,0
2018-03-06T18:46:07.245Z,0
2018-03-06T18:47:09.097Z,0
2018-03-06T18:48:10.955Z,0
2018-03-06T18:49:12.857Z,0
2018-03-06T18:50:14.617Z,0
2018-03-06T18:51:16.408Z,0
2018-03-06T18:52:18.267Z,0
2018-03-06T18:53:20.224Z,0
2018-03-06T18:54:22.054Z,0
2018-03-06T18:55:36.162Z,0
2018-03-06T18:56:38.017Z,0
2018-03-06T18:57:39.872Z,0
2018-03-06T18:58:41.735Z,0
2018-03-06T18:59:43.546Z,0
2018-03-06T19:00:45.359Z,0
2018-03-06T19:01:47.213Z,0
2018-03-06T19:02:49.078Z,0
2018-03-06T19:03:50.938Z,0
2018-03-06T19:05:05.065Z,0
2018-03-06T19:06:06.942Z,0
2018-03-06T19:07:08.794Z,0
2018-03-06T19:08:10.647Z,0
2018-03-06T19:09:12.442Z,0
2018-03-06T19:10:14.228Z,0
2018-03-06T19:11:16.093Z,0
2018-03-06T19:12:17.938Z,0
2018-03-06T19:13:19.796Z,0
2018-03-06T19:14:33.916Z,0
2018-03-06T19:15:35.773Z,0
2018-03-06T19:16:37.634Z,0
2018-03-06T19:17:39.507Z,0
2018-03-06T19:18:41.318Z,0
2018-03-06T19:19:43.111Z,0
2018-03-06T19:20:44.984Z,0
2018-03-06T19:21:46.838Z,0
2018-03-06T19:22:48.708Z,0
2018-03-06T19:24:02.860Z,0
2018-03-06T19:25:04.775Z,0
2018-03-06T19:26:06.589Z,0
2018-03-06T19:27:08.446Z,0
2018-03-06T19:28:10.229Z,0
2018-03-06T19:29:12.023Z,0
2018-03-06T19:30:13.915Z,0
2018-03-06T19:31:15.804Z,0
2018-03-06T19:32:17.661Z,0
2018-03-06T19:33:31.802Z,0
2018-03-06T19:34:33.661Z,0
2018-03-06T19:35:35.518Z,0
2018-03-06T19:36:37.376Z,0
2018-03-06T19:37:39.187Z,0
2018-03-06T19:38:40.980Z,0
2018-03-06T19:39:42.828Z,0
2018-03-06T19:40:44.684Z,0
2018-03-06T19:41:46.542Z,0
2018-03-06T19:43:00.684Z,0
2018-03-06T19:44:02.562Z,0
2018-03-06T19:45:04.416Z,0
2018-03-06T19:46:06.268Z,0
2018-03-06T19:47:08.060Z,0
2018-03-06T19:48:09.876Z,0
2018-03-06T19:49:11.750Z,0
2018-03-06T19:50:13.613Z,0
2018-03-06T19:51:15.497Z,0
2018-03-06T19:52:29.635Z,0
2018-03-06T19:53:31.494Z,0
2018-03-06T19:54:33.368Z,0
2018-03-06T19:55:35.247Z,0
2018-03-06T19:56:37.038Z,0
2018-03-06T19:57:38.822Z,0
2018-03-06T19:58:40.681Z,0
2018-03-06T19:59:42.560Z,0
2018-03-06T20:00:44.439Z,0
2018-03-06T20:01:58.568Z,0
2018-03-06T20:03:00.435Z,0
2018-03-06T20:04:02.297Z,0
2018-03-06T20:05:04.173Z,0
2018-03-06T20:06:05.963Z,0
2018-03-06T20:07:07.774Z,0
2018-03-06T20:08:09.636Z,0
2018-03-06T20:09:11.520Z,0
2018-03-06T20:10:13.417Z,0
2018-03-06T20:11:27.567Z,0
2018-03-06T20:12:29.443Z,0
2018-03-06T20:13:31.298Z,0
2018-03-06T20:14:33.153Z,0
2018-03-06T20:15:34.965Z,0
2018-03-06T20:16:36.775Z,0
2018-03-06T20:17:38.630Z,0
2018-03-06T20:18:40.488Z,0
2018-03-06T20:19:42.348Z,0
2018-03-06T20:20:56.485Z,0
2018-03-06T20:21:58.344Z,0
2018-03-06T20:23:00.201Z,0
2018-03-06T20:24:02.057Z,0
2018-03-06T20:25:03.848Z,0
2018-03-06T20:26:05.639Z,0
2018-03-06T20:27:07.499Z,0
2018-03-06T20:28:09.382Z,0
2018-03-06T20:29:11.253Z,0
2018-03-06T20:30:25.377Z,0
2018-03-06T20:31:27.238Z,0
2018-03-06T20:32:29.091Z,0
2018-03-06T20:33:30.952Z,0
2018-03-06T20:34:32.763Z,0
2018-03-06T20:35:34.553Z,0
2018-03-06T20:36:36.407Z,0
2018-03-06T20:37:38.257Z,0
2018-03-06T20:38:40.116Z,0
2018-03-06T20:39:54.257Z,0
2018-03-06T20:40:56.113Z,0
2018-03-06T20:41:57.973Z,0
2018-03-06T20:42:59.850Z,0
2018-03-06T20:44:01.658Z,0
2018-03-06T20:45:03.449Z,0
2018-03-06T20:46:05.330Z,0
2018-03-06T20:47:07.176Z,0
2018-03-06T20:48:09.033Z,0
2018-03-06T20:49:23.209Z,0
2018-03-06T20:50:25.079Z,0
2018-03-06T20:51:26.941Z,0
2018-03-06T20:52:28.820Z,0
2018-03-06T20:53:30.612Z,0
2018-03-06T20:54:32.420Z,0
2018-03-06T20:55:34.292Z,0
2018-03-06T20:56:36.162Z,0
2018-03-06T20:57:38.020Z,0
2018-03-06T20:58:52.143Z,0
2018-03-06T20:59:54.007Z,0
2018-03-06T21:00:55.857Z,0
2018-03-06T21:01:57.716Z,0
2018-03-06T21:02:59.508Z,0
2018-03-06T21:04:01.296Z,0
2018-03-06T21:05:03.149Z,0
2018-03-06T21:06:05.002Z,0
2018-03-06T21:07:06.856Z,0
2018-03-06T21:08:20.976Z,0
2018-03-06T21:09:22.848Z,0
2018-03-06T21:10:24.703Z,0
2018-03-06T21:11:26.556Z,0
2018-03-06T21:12:28.345Z,0
2018-03-06T21:13:30.136Z,0
